Flight Track Log - Related Links

Times and Time Zones

All times are in EDT time to prevent confusion due to time zone crossing. See the SJ619 flight status page for this flight to view local times or setup timezone preferences in your user account.

Time Position Orientation Groundspeed Altitude Reporting Facility
EDT Latitude Longitude Course Direction KTS MPH feet Rate Location/Type
Mon 01:23:01 PM 49.0167 -68.3167 216° Southwest 160 184 6,800  Level Montreal Center
Mon 01:24:01 PM 48.9833 -68.3500 213° Southwest 170 196 8,800 1,700 Climbing Montreal Center
Mon 01:25:01 PM 48.9500 -68.4000 225° Southwest 180 207 10,200 650 Climbing Montreal Center
Mon 01:26:00 PM 48.8215 -68.6544 218° Southwest  Level Estimated
Mon 01:26:01 PM 48.9000 -68.4667 221° Southwest 210 242 10,100  Level Montreal Center
Mon 01:27:00 PM 48.7723 -68.7092 216° Southwest  Level FlightAware Approximate
Mon 01:27:01 PM 48.8500 -68.5000 204° Southwest 230 265 10,200  Level Montreal Center
Mon 01:28:00 PM 48.7230 -68.7639 216° Southwest  Level FlightAware Approximate
Mon 01:28:01 PM 48.7833 -68.5667 213° Southwest 230 265 10,200  Level Montreal Center
Mon 01:29:01 PM 48.7333 -68.6500 228° Southwest 230 265 10,100  Descending Montreal Center
Mon 01:30:01 PM 48.7000 -68.7000 225° Southwest 220 253 10,200 90 Climbing Montreal Center
Mon 01:31:15 PM 48.6500 -68.7833 228° Southwest 220 253 10,300 90 Climbing Montreal Center
Mon 01:32:15 PM 48.5833 -68.8500 213° Southwest 220 253 10,400 150 Climbing Montreal Center
Mon 01:33:15 PM 48.5333 -68.8833 204° Southwest 220 253 10,600 250 Climbing Montreal Center
Mon 01:34:15 PM 48.4833 -68.9333 214° Southwest 220 253 10,900 200 Climbing Montreal Center
Mon 01:35:15 PM 48.4167 -68.9667 198° South 220 253 11,000 200 Climbing Montreal Center
Mon 01:36:15 PM 48.3833 -69.0333 233° Southwest 220 253 11,300 150 Climbing Montreal Center
Mon 01:37:15 PM 48.3333 -69.0833 214° Southwest 220 253 11,300 50 Level Montreal Center
Mon 01:38:15 PM 48.3000 -69.1333 225° Southwest 220 253 11,400 50 Climbing Montreal Center
Mon 01:39:15 PM 48.2500 -69.2167 228° Southwest 220 253 11,400  Level Montreal Center
Mon 01:40:15 PM 48.2000 -69.2833 222° Southwest 220 253 11,400 50 Level Montreal Center
Mon 01:41:15 PM 48.1667 -69.3333 225° Southwest 210 242 11,500  Climbing Montreal Center
Mon 01:42:15 PM 48.1167 -69.4000 222° Southwest 210 242 11,400 -100 Descending Montreal Center
Mon 01:43:15 PM 48.0667 -69.4500 214° Southwest 220 253 11,300 -50 Descending Montreal Center
Mon 01:44:15 PM 48.0167 -69.5000 214° Southwest 220 253 11,300 -50 Level Montreal Center
Mon 01:45:15 PM 47.9500 -69.5333 199° South 230 265 11,200 -100 Descending Montreal Center
Mon 01:46:15 PM 47.9000 -69.6000 222° Southwest 220 253 11,100 -50 Descending Montreal Center
Mon 01:47:15 PM 47.8667 -69.6500 225° Southwest 230 265 11,100 -150 Level Montreal Center
Mon 01:48:15 PM 47.8167 -69.7167 222° Southwest 230 265 10,800 -100 Descending Montreal Center
Mon 01:49:15 PM 47.7500 -69.7667 207° Southwest 230 265 10,900 -100 Climbing Montreal Center
Mon 01:50:15 PM 47.7000 -69.8167 214° Southwest 220 253 10,600 -100 Descending Montreal Center
Mon 01:51:15 PM 47.6500 -69.8833 222° Southwest 220 253 10,700 50 Climbing Montreal Center
Mon 01:52:15 PM 47.6000 -69.9333 214° Southwest 220 253 10,700 200 Level Montreal Center
Mon 01:53:15 PM 47.5667 -69.9833 225° Southwest 220 253 11,100 250 Climbing Montreal Center
Mon 01:54:15 PM 47.5167 -70.0500 222° Southwest 220 253 11,200 100 Climbing Montreal Center
Mon 01:55:15 PM 47.4667 -70.1000 214° Southwest 220 253 11,300 100 Climbing Montreal Center
Mon 01:56:15 PM 47.4167 -70.1500 214° Southwest 220 253 11,400 150 Climbing Montreal Center
Mon 01:57:15 PM 47.3667 -70.2333 228° Southwest 220 253 11,600 50 Climbing Montreal Center
Mon 01:58:15 PM 47.3333 -70.2833 225° Southwest 220 253 11,500 -100 Descending Montreal Center
Mon 01:59:15 PM 47.3000 -70.3667 239° Southwest 220 253 11,400 -50 Descending Montreal Center
Mon 02:00:15 PM 47.2500 -70.4333 222° Southwest 230 265 11,400 -150 Level Montreal Center
Mon 02:01:15 PM 47.2000 -70.5000 222° Southwest 230 265 11,100 -300 Descending Montreal Center
Mon 02:02:15 PM 47.1667 -70.5833 240° Southwest 230 265 10,800 -250 Descending Montreal Center
Mon 02:03:15 PM 47.1167 -70.6667 229° Southwest 230 265 10,600 -150 Descending Montreal Center
Mon 02:04:15 PM 47.1000 -70.7333 250° West 230 265 10,500 -50 Descending Montreal Center
Mon 02:05:15 PM 47.0667 -70.8167 240° Southwest 220 253 10,500  Level Montreal Center
Mon 02:06:15 PM 47.0333 -70.9000 240° Southwest 220 253 10,500 -300 Level Montreal Center
Mon 02:07:15 PM 47.0000 -70.9667 234° Southwest 220 253 9,900 -1,100 Descending Montreal Center
Mon 02:08:15 PM 46.9667 -71.0500 240° Southwest 230 265 8,300 -1,700 Descending Montreal Center
Mon 02:09:15 PM 46.9500 -71.1500 256° West 230 265 6,500 -1,900 Descending Montreal Center
Mon 02:10:15 PM 46.9167 -71.2000 226° Southwest 200 230 4,500 -1,900 Descending Montreal Center
Mon 02:11:15 PM 46.8667 -71.2500 214° Southwest 180 207 2,700 -1,600 Descending Montreal Center
Mon 02:12:15 PM 46.8333 -71.2833 214° Southwest 170 196 1,300 -1,000 Descending Montreal Center
Mon 02:13:15 PM 46.8167 -71.3333 244° Southwest 120 138 700 -500 Descending Montreal Center
Mon 02:14:15 PM 46.7833 -71.3667 214° Southwest 110 127 300 -400 Descending Montreal Center

Login

Don't have an account? Register now (free) for customized features, flight alerts, and more!